Time;durP1;ratioP1;P1;durP2;ratioP2;P2;SDS_P1;SDS_P2;PMS_P1;PMS_P2;Temp;Humidity;BMP_temperature;BMP_pressure;BME280_temperature;BME280_humidity;BME280_pressure;Samples;Min_cycle;Max_cycle;Signal;HPM_P1;HPM_P2
2021/11/05 00:00:40;;;;;;;7.20;6.20;;;;;;;;;;5133607;27;20226;-84
2021/11/05 00:03:07;;;;;;;9.53;6.60;;;;;;;;;;5134021;27;20625;-85
2021/11/05 00:05:35;;;;;;;7.00;6.30;;;;;;;;;;5133372;27;20229;-85
2021/11/05 00:08:07;;;;;;;7.73;6.93;;;;;;;;;;5133549;27;20206;-85
2021/11/05 00:10:35;;;;;;;10.53;7.07;;;;;;;;;;5133546;27;20182;-84
2021/11/05 00:13:02;;;;;;;7.17;6.43;;;;;;;;;;5133599;27;20553;-84
2021/11/05 00:15:29;;;;;;;9.93;6.50;;;;;;;;;;5133351;27;20670;-84
2021/11/05 00:17:58;;;;;;;10.23;7.40;;;;;;;;;;5133698;27;20275;-84
2021/11/05 00:20:26;;;;;;;7.07;6.37;;;;;;;;;;5133209;27;20194;-84
2021/11/05 00:22:54;;;;;;;10.60;7.77;;;;;;;;;;5133357;27;20203;-84
2021/11/05 00:25:22;;;;;;;9.07;7.57;;;;;;;;;;5133044;27;20667;-84
2021/11/05 00:27:49;;;;;;;7.93;6.60;;;;;;;;;;5133264;27;20195;-85
2021/11/05 00:30:17;;;;;;;9.50;7.73;;;;;;;;;;5133143;27;20255;-84
2021/11/05 00:32:45;;;;;;;8.80;6.73;;;;;;;;;;5133293;27;20249;-85
2021/11/05 00:35:15;;;;;;;9.43;6.33;;;;;;;;;;5133170;27;20191;-84
2021/11/05 00:37:42;;;;;;;7.90;6.77;;;;;;;;;;5133398;27;20199;-85
2021/11/05 00:40:11;;;;;;;9.33;7.27;;;;;;;;;;5132944;27;20663;-85
2021/11/05 00:42:39;;;;;;;9.50;6.80;;;;;;;;;;5133405;27;20604;-85
2021/11/05 00:45:08;;;;;;;7.93;7.13;;;;;;;;;;5132751;27;20231;-84
2021/11/05 00:47:35;;;;;;;7.17;6.43;;;;;;;;;;5133055;27;20662;-85
2021/11/05 00:50:02;;;;;;;8.33;6.73;;;;;;;;;;5132959;27;20226;-85
2021/11/05 00:52:31;;;;;;;7.20;5.93;;;;;;;;;;5133027;27;20198;-85
2021/11/05 00:54:58;;;;;;;9.57;6.43;;;;;;;;;;5132699;27;20199;-84
2021/11/05 00:57:26;;;;;;;8.17;7.20;;;;;;;;;;5132682;27;20650;-85
2021/11/05 00:59:53;;;;;;;7.90;7.00;;;;;;;;;;5132677;28;20201;-84
2021/11/05 01:02:20;;;;;;;10.73;6.83;;;;;;;;;;5132510;28;20271;-84
2021/11/05 01:04:48;;;;;;;7.73;6.93;;;;;;;;;;5132688;28;20202;-84
2021/11/05 01:07:15;;;;;;;6.43;5.83;;;;;;;;;;5132829;28;20640;-84
2021/11/05 01:09:44;;;;;;;8.97;7.00;;;;;;;;;;5132780;28;20183;-84
2021/11/05 01:12:11;;;;;;;9.20;6.57;;;;;;;;;;5132430;28;20194;-84
2021/11/05 01:14:39;;;;;;;8.47;6.53;;;;;;;;;;5133004;28;20227;-84
2021/11/05 01:17:06;;;;;;;9.27;6.37;;;;;;;;;;5132569;28;20203;-84
2021/11/05 01:19:34;;;;;;;10.87;6.63;;;;;;;;;;5132432;28;20234;-85
2021/11/05 01:22:01;;;;;;;9.27;7.40;;;;;;;;;;5132385;28;20237;-84
2021/11/05 01:24:28;;;;;;;8.90;6.73;;;;;;;;;;5132633;28;20248;-84
2021/11/05 01:26:58;;;;;;;9.10;7.10;;;;;;;;;;5132740;28;20271;-84
2021/11/05 01:29:25;;;;;;;7.67;6.87;;;;;;;;;;5132609;28;20281;-83
2021/11/05 01:31:53;;;;;;;9.33;6.80;;;;;;;;;;5132184;28;20187;-84
2021/11/05 01:34:21;;;;;;;9.37;7.23;;;;;;;;;;5132495;28;20646;-84
2021/11/05 01:36:48;;;;;;;10.13;6.90;;;;;;;;;;5132346;28;20723;-84
2021/11/05 01:39:16;;;;;;;7.53;6.70;;;;;;;;;;5132563;27;20231;-84
2021/11/05 01:41:43;;;;;;;8.10;7.30;;;;;;;;;;5131971;28;20214;-84
2021/11/05 01:44:12;;;;;;;11.33;8.13;;;;;;;;;;5132722;28;20579;-84
2021/11/05 01:46:42;;;;;;;7.90;6.87;;;;;;;;;;5132214;28;20195;-85
2021/11/05 01:49:10;;;;;;;17.20;7.80;;;;;;;;;;5132749;28;20206;-84
2021/11/05 01:51:38;;;;;;;11.37;7.17;;;;;;;;;;5132175;28;20662;-84
2021/11/05 01:54:06;;;;;;;8.00;7.13;;;;;;;;;;5132224;28;20198;-84
2021/11/05 01:56:34;;;;;;;10.13;7.47;;;;;;;;;;5132196;28;20199;-84
2021/11/05 01:59:01;;;;;;;8.43;6.40;;;;;;;;;;5132142;28;20230;-85
2021/11/05 02:01:30;;;;;;;7.97;6.83;;;;;;;;;;5132320;28;20276;-84
2021/11/05 02:03:57;;;;;;;9.50;7.07;;;;;;;;;;5132137;28;20233;-84
2021/11/05 02:06:25;;;;;;;10.97;7.13;;;;;;;;;;5134648;27;20241;-84
2021/11/05 02:08:53;;;;;;;8.33;7.40;;;;;;;;;;5136071;27;20251;-84
2021/11/05 02:11:21;;;;;;;7.20;6.50;;;;;;;;;;5135693;27;20191;-84
2021/11/05 02:13:49;;;;;;;6.83;6.13;;;;;;;;;;5135708;27;20252;-84
2021/11/05 02:16:16;;;;;;;10.63;6.77;;;;;;;;;;5135648;27;20205;-84
2021/11/05 02:18:46;;;;;;;7.13;6.10;;;;;;;;;;5135916;27;20195;-83
2021/11/05 02:21:17;;;;;;;10.03;7.73;;;;;;;;;;5135279;27;20278;-84
2021/11/05 02:23:47;;;;;;;9.50;6.80;;;;;;;;;;5135736;27;20193;-84
2021/11/05 02:26:14;;;;;;;9.53;7.10;;;;;;;;;;5135420;27;20198;-84
2021/11/05 02:28:42;;;;;;;9.23;7.70;;;;;;;;;;5135569;27;20195;-84
2021/11/05 02:31:09;;;;;;;7.27;6.53;;;;;;;;;;5135412;27;20191;-84
2021/11/05 02:33:36;;;;;;;9.57;6.77;;;;;;;;;;5135325;27;20199;-84
2021/11/05 02:36:04;;;;;;;7.50;6.67;;;;;;;;;;5135245;27;20195;-84
2021/11/05 02:38:31;;;;;;;8.30;7.43;;;;;;;;;;5135425;27;20602;-84
2021/11/05 02:41:00;;;;;;;8.20;7.40;;;;;;;;;;5135512;27;20642;-84
2021/11/05 02:43:27;;;;;;;9.30;7.47;;;;;;;;;;5135304;27;20222;-85
2021/11/05 02:45:55;;;;;;;7.00;6.30;;;;;;;;;;5135105;27;20247;-84
2021/11/05 02:48:22;;;;;;;7.93;7.17;;;;;;;;;;5135286;27;20193;-84
2021/11/05 02:50:50;;;;;;;10.27;7.13;;;;;;;;;;5134784;27;20203;-84
2021/11/05 02:53:17;;;;;;;10.37;7.03;;;;;;;;;;5135180;27;20195;-84
2021/11/05 02:55:45;;;;;;;8.90;7.47;;;;;;;;;;5134863;27;20195;-84
2021/11/05 02:58:14;;;;;;;9.10;7.83;;;;;;;;;;5134881;27;20230;-84
2021/11/05 03:00:45;;;;;;;13.57;8.77;;;;;;;;;;5134709;27;20201;-84
2021/11/05 03:03:12;;;;;;;11.80;8.63;;;;;;;;;;5134687;27;20199;-84
2021/11/05 03:05:40;;;;;;;7.87;6.63;;;;;;;;;;5134659;27;20201;-84
2021/11/05 03:08:08;;;;;;;8.37;6.60;;;;;;;;;;5134874;27;20191;-84
2021/11/05 03:10:36;;;;;;;17.60;11.00;;;;;;;;;;5134285;27;20199;-84
2021/11/05 03:13:04;;;;;;;12.87;11.53;;;;;;;;;;5134995;27;20612;-84
2021/11/05 03:15:32;;;;;;;9.43;8.43;;;;;;;;;;5134827;27;20194;-84
2021/11/05 03:18:01;;;;;;;9.70;8.43;;;;;;;;;;5134907;27;20586;-84
2021/11/05 03:20:28;;;;;;;8.43;6.70;;;;;;;;;;5134743;27;20643;-84
2021/11/05 03:22:56;;;;;;;9.37;8.47;;;;;;;;;;5134529;27;20218;-84
2021/11/05 03:25:23;;;;;;;9.93;7.67;;;;;;;;;;5134379;27;20731;-84
2021/11/05 03:27:50;;;;;;;7.77;7.07;;;;;;;;;;5135006;27;20637;-84
2021/11/05 03:30:19;;;;;;;8.10;7.33;;;;;;;;;;5134149;27;20194;-84
2021/11/05 03:32:48;;;;;;;10.37;9.27;;;;;;;;;;5134512;27;20187;-84
2021/11/05 03:35:16;;;;;;;20.40;15.47;;;;;;;;;;5134283;27;20191;-85
2021/11/05 03:37:44;;;;;;;12.57;10.30;;;;;;;;;;5134263;27;20215;-85
2021/11/05 03:40:14;;;;;;;8.53;7.07;;;;;;;;;;5133991;27;20260;-84
2021/11/05 03:42:41;;;;;;;14.93;7.43;;;;;;;;;;5133864;27;20291;-84
2021/11/05 03:45:09;;;;;;;9.93;6.60;;;;;;;;;;5134318;27;20274;-84
2021/11/05 03:47:36;;;;;;;7.63;6.40;;;;;;;;;;5134180;27;20633;-84
2021/11/05 03:50:05;;;;;;;18.60;15.13;;;;;;;;;;5134098;27;20266;-84
2021/11/05 03:52:33;;;;;;;12.13;10.90;;;;;;;;;;5133810;27;20187;-84
2021/11/05 03:55:02;;;;;;;12.30;10.50;;;;;;;;;;5134092;27;20197;-85
2021/11/05 03:57:29;;;;;;;12.70;10.27;;;;;;;;;;5133739;27;20222;-85
2021/11/05 03:59:57;;;;;;;11.87;9.53;;;;;;;;;;5133856;27;20179;-85
2021/11/05 04:02:24;;;;;;;9.00;7.27;;;;;;;;;;5133930;27;20222;-85
2021/11/05 04:04:55;;;;;;;8.73;7.33;;;;;;;;;;5133456;27;20227;-84
2021/11/05 04:07:24;;;;;;;23.60;9.30;;;;;;;;;;5132593;27;20190;-85
2021/11/05 04:09:51;;;;;;;17.03;8.40;;;;;;;;;;5131812;27;20203;-86
2021/11/05 04:12:19;;;;;;;13.57;9.90;;;;;;;;;;5133042;27;20187;-84
2021/11/05 04:14:47;;;;;;;13.87;9.73;;;;;;;;;;5132734;27;20571;-84
2021/11/05 04:17:14;;;;;;;19.23;8.93;;;;;;;;;;5132523;27;20243;-84
2021/11/05 04:19:42;;;;;;;57.43;40.07;;;;;;;;;;5132629;27;20198;-84
2021/11/05 04:22:09;;;;;;;22.40;18.93;;;;;;;;;;5132422;27;20603;-84
2021/11/05 04:24:38;;;;;;;16.90;15.10;;;;;;;;;;5132732;27;20206;-84
2021/11/05 04:27:06;;;;;;;31.00;27.37;;;;;;;;;;5132388;27;20202;-84
2021/11/05 04:29:35;;;;;;;32.37;24.33;;;;;;;;;;5132353;27;20199;-83
2021/11/05 04:32:02;;;;;;;62.40;47.63;;;;;;;;;;5132586;27;20191;-84
2021/11/05 04:34:30;;;;;;;37.77;18.87;;;;;;;;;;5132093;27;20236;-84
2021/11/05 04:36:57;;;;;;;26.80;17.53;;;;;;;;;;5132157;27;20222;-84
2021/11/05 04:39:25;;;;;;;14.57;10.90;;;;;;;;;;5132564;27;20202;-84
2021/11/05 04:41:54;;;;;;;15.17;9.83;;;;;;;;;;5125500;27;20198;-84
2021/11/05 04:44:21;;;;;;;108.97;69.43;;;;;;;;;;5132426;27;20271;-84
2021/11/05 04:46:49;;;;;;;51.93;37.77;;;;;;;;;;5132006;27;20259;-84
2021/11/05 04:49:16;;;;;;;33.90;27.03;;;;;;;;;;5132074;27;20577;-84
2021/11/05 04:51:44;;;;;;;41.20;32.20;;;;;;;;;;5130581;27;20747;-84
2021/11/05 04:54:11;;;;;;;30.90;27.53;;;;;;;;;;5111861;28;20259;-84
2021/11/05 04:56:38;;;;;;;40.30;29.17;;;;;;;;;;5111288;28;20205;-84
2021/11/05 04:59:08;;;;;;;25.23;20.07;;;;;;;;;;5111206;28;20961;-84
2021/11/05 05:01:35;;;;;;;20.13;13.50;;;;;;;;;;5111022;28;20210;-84
2021/11/05 05:04:03;;;;;;;19.03;13.77;;;;;;;;;;5111332;28;20269;-83
2021/11/05 05:06:30;;;;;;;29.30;26.27;;;;;;;;;;5111371;28;20621;-84
2021/11/05 05:08:57;;;;;;;46.40;34.20;;;;;;;;;;5111232;28;20199;-84
2021/11/05 05:11:24;;;;;;;38.50;23.90;;;;;;;;;;5111187;28;20195;-84
2021/11/05 05:13:52;;;;;;;23.93;17.43;;;;;;;;;;5111066;28;20199;-84
2021/11/05 05:16:21;;;;;;;18.03;15.43;;;;;;;;;;5111196;28;20195;-84
2021/11/05 05:18:48;;;;;;;30.17;19.87;;;;;;;;;;5111500;28;20739;-84
2021/11/05 05:21:16;;;;;;;25.17;20.33;;;;;;;;;;5121413;28;20278;-84
2021/11/05 05:23:43;;;;;;;22.53;17.07;;;;;;;;;;5131714;27;20713;-84
2021/11/05 05:26:11;;;;;;;18.53;14.40;;;;;;;;;;5131323;28;20194;-84
2021/11/05 05:28:38;;;;;;;17.47;13.70;;;;;;;;;;5131945;28;20198;-84
2021/11/05 05:31:08;;;;;;;14.33;11.27;;;;;;;;;;5129846;27;20626;-84
2021/11/05 05:33:37;;;;;;;13.30;11.93;;;;;;;;;;5127507;27;20194;-85
2021/11/05 05:36:05;;;;;;;22.10;15.97;;;;;;;;;;5131549;27;20195;-84
2021/11/05 05:38:32;;;;;;;17.97;16.07;;;;;;;;;;5131840;27;20198;-84
2021/11/05 05:41:00;;;;;;;17.10;15.33;;;;;;;;;;5133338;27;20195;-84
2021/11/05 05:43:27;;;;;;;18.17;15.03;;;;;;;;;;5135902;27;20267;-84
2021/11/05 05:45:55;;;;;;;16.50;14.27;;;;;;;;;;5135604;27;20229;-85
2021/11/05 05:48:22;;;;;;;14.27;12.73;;;;;;;;;;5135710;27;20203;-85
2021/11/05 05:50:51;;;;;;;13.10;11.80;;;;;;;;;;5135973;27;20197;-86
2021/11/05 05:53:20;;;;;;;18.13;13.83;;;;;;;;;;5136416;27;20195;-85
2021/11/05 05:55:48;;;;;;;16.10;14.40;;;;;;;;;;5126273;27;20202;-85
2021/11/05 05:58:15;;;;;;;16.67;14.97;;;;;;;;;;5135475;27;20234;-85
2021/11/05 06:00:43;;;;;;;19.10;17.27;;;;;;;;;;5135163;27;20202;-85
2021/11/05 06:03:10;;;;;;;15.77;13.93;;;;;;;;;;5136407;27;20214;-85
2021/11/05 06:05:37;;;;;;;18.93;16.37;;;;;;;;;;5135920;27;20252;-85
2021/11/05 06:08:07;;;;;;;15.13;12.93;;;;;;;;;;5136039;27;20201;-84
2021/11/05 06:10:34;;;;;;;19.57;13.57;;;;;;;;;;5136227;27;20195;-85
2021/11/05 06:13:02;;;;;;;19.00;16.57;;;;;;;;;;5136317;27;20203;-85
2021/11/05 06:15:29;;;;;;;15.27;13.67;;;;;;;;;;5136217;27;20547;-85
2021/11/05 06:17:56;;;;;;;20.93;15.47;;;;;;;;;;5135924;27;20227;-85
2021/11/05 06:20:24;;;;;;;17.97;13.67;;;;;;;;;;5135418;27;20255;-85
2021/11/05 06:22:51;;;;;;;41.67;29.47;;;;;;;;;;5135702;27;20229;-85
2021/11/05 06:25:20;;;;;;;21.90;17.70;;;;;;;;;;5135624;27;20195;-85
2021/11/05 06:27:47;;;;;;;13.50;11.60;;;;;;;;;;5135902;27;20569;-85
2021/11/05 06:30:15;;;;;;;15.10;11.47;;;;;;;;;;5135694;27;20670;-85
2021/11/05 06:32:42;;;;;;;29.60;24.57;;;;;;;;;;5135669;27;20194;-85
2021/11/05 06:35:11;;;;;;;17.70;15.60;;;;;;;;;;5135538;27;20728;-85
2021/11/05 06:37:38;;;;;;;18.60;16.67;;;;;;;;;;5135312;27;20191;-85
2021/11/05 06:40:07;;;;;;;17.13;15.43;;;;;;;;;;5135364;27;20735;-85
2021/11/05 06:42:36;;;;;;;17.17;14.20;;;;;;;;;;5135363;27;20195;-85
2021/11/05 06:45:04;;;;;;;26.40;23.70;;;;;;;;;;5135316;27;20252;-85
2021/11/05 06:47:31;;;;;;;16.90;15.07;;;;;;;;;;5135448;27;20187;-85
2021/11/05 06:49:59;;;;;;;16.20;14.53;;;;;;;;;;5135204;27;20195;-85
2021/11/05 06:52:26;;;;;;;19.93;18.07;;;;;;;;;;5135087;27;20613;-85
2021/11/05 06:54:53;;;;;;;15.93;14.23;;;;;;;;;;5135120;27;20234;-85
2021/11/05 06:57:21;;;;;;;9.37;8.57;;;;;;;;;;5135024;27;20226;-85
2021/11/05 06:59:50;;;;;;;8.97;7.90;;;;;;;;;;5135395;27;20299;-85
2021/11/05 07:02:17;;;;;;;7.40;6.80;;;;;;;;;;5135039;27;20568;-85
2021/11/05 07:04:44;;;;;;;10.57;7.20;;;;;;;;;;5134828;27;20309;-85
2021/11/05 07:07:12;;;;;;;6.30;5.73;;;;;;;;;;5134916;27;20720;-85
2021/11/05 07:09:39;;;;;;;6.33;5.83;;;;;;;;;;5134839;27;20198;-86
2021/11/05 07:12:07;;;;;;;6.37;5.87;;;;;;;;;;5134638;27;20206;-85
2021/11/05 07:14:35;;;;;;;6.43;5.93;;;;;;;;;;5135078;27;20642;-85
2021/11/05 07:17:04;;;;;;;8.73;7.43;;;;;;;;;;5134895;27;20558;-85
2021/11/05 07:19:31;;;;;;;7.30;6.50;;;;;;;;;;5135060;27;20594;-85
2021/11/05 07:22:03;;;;;;;8.77;6.73;;;;;;;;;;5134478;27;20197;-85
2021/11/05 07:24:31;;;;;;;8.57;6.97;;;;;;;;;;5134688;27;20554;-85
2021/11/05 07:26:58;;;;;;;8.77;6.07;;;;;;;;;;5134833;27;20304;-85
2021/11/05 07:29:27;;;;;;;8.17;6.53;;;;;;;;;;5134446;27;20202;-85
2021/11/05 07:31:55;;;;;;;6.53;5.83;;;;;;;;;;5134116;27;20230;-85
2021/11/05 07:34:24;;;;;;;7.33;5.70;;;;;;;;;;5134383;27;20673;-85
2021/11/05 07:36:52;;;;;;;11.97;6.47;;;;;;;;;;5134129;27;20201;-85
2021/11/05 07:39:19;;;;;;;5.63;5.23;;;;;;;;;;5134367;27;20191;-85
2021/11/05 07:41:46;;;;;;;7.60;6.03;;;;;;;;;;5134026;27;20190;-85
2021/11/05 07:44:13;;;;;;;8.97;6.43;;;;;;;;;;5134122;27;20271;-85
2021/11/05 07:46:44;;;;;;;8.03;6.23;;;;;;;;;;5134110;27;20247;-85
2021/11/05 07:49:12;;;;;;;6.00;5.50;;;;;;;;;;5133426;27;20199;-85
2021/11/05 07:51:41;;;;;;;6.97;6.37;;;;;;;;;;5132419;27;20667;-84
2021/11/05 07:54:08;;;;;;;7.50;6.10;;;;;;;;;;5133765;27;20201;-85
2021/11/05 07:56:36;;;;;;;7.33;5.47;;;;;;;;;;5133813;27;20573;-85
2021/11/05 07:59:03;;;;;;;6.53;5.93;;;;;;;;;;5134003;27;20233;-85
2021/11/05 08:01:30;;;;;;;7.20;5.90;;;;;;;;;;5133733;27;20187;-85
2021/11/05 08:03:58;;;;;;;7.90;5.90;;;;;;;;;;5133392;27;20223;-84
2021/11/05 08:06:25;;;;;;;5.60;5.00;;;;;;;;;;5133450;27;20218;-85
2021/11/05 08:08:54;;;;;;;7.63;5.83;;;;;;;;;;5133740;27;20205;-85
2021/11/05 08:11:22;;;;;;;5.57;5.07;;;;;;;;;;5133473;27;20261;-85
2021/11/05 08:13:51;;;;;;;6.53;5.77;;;;;;;;;;5133484;27;20201;-85
2021/11/05 08:16:18;;;;;;;10.07;6.20;;;;;;;;;;5133813;27;20248;-85
2021/11/05 08:18:46;;;;;;;9.43;6.30;;;;;;;;;;5133586;27;20332;-85
2021/11/05 08:21:13;;;;;;;7.60;5.70;;;;;;;;;;5133365;27;20776;-85
2021/11/05 08:23:40;;;;;;;11.63;6.93;;;;;;;;;;5133207;27;20273;-85
2021/11/05 08:26:09;;;;;;;9.27;6.40;;;;;;;;;;5133323;27;20195;-85
2021/11/05 08:28:38;;;;;;;7.07;6.10;;;;;;;;;;5134231;27;20626;-85
2021/11/05 08:31:08;;;;;;;7.57;6.87;;;;;;;;;;5133039;27;20203;-85
2021/11/05 08:33:36;;;;;;;7.20;6.27;;;;;;;;;;5133598;27;20197;-85
2021/11/05 08:36:04;;;;;;;14.57;11.10;;;;;;;;;;5132988;27;20201;-85
2021/11/05 08:38:33;;;;;;;6.80;6.20;;;;;;;;;;5133241;27;20193;-85
2021/11/05 08:41:00;;;;;;;7.57;5.90;;;;;;;;;;5132834;27;20669;-85
2021/11/05 08:43:33;;;;;;;8.43;7.10;;;;;;;;;;5133225;27;20292;-84
2021/11/05 08:46:00;;;;;;;10.57;7.13;;;;;;;;;;5133036;27;20182;-84
2021/11/05 08:48:28;;;;;;;9.50;8.60;;;;;;;;;;5133348;27;20199;-85
2021/11/05 08:50:57;;;;;;;7.47;6.73;;;;;;;;;;5132705;27;20201;-85
2021/11/05 08:53:24;;;;;;;8.67;7.60;;;;;;;;;;5133336;27;20247;-85
2021/11/05 08:55:51;;;;;;;8.87;6.97;;;;;;;;;;5133149;27;20198;-85
2021/11/05 08:58:19;;;;;;;7.47;6.40;;;;;;;;;;5133054;27;20229;-84
2021/11/05 09:00:48;;;;;;;8.30;6.47;;;;;;;;;;5132833;27;20248;-84
2021/11/05 09:03:15;;;;;;;8.17;7.33;;;;;;;;;;5133007;28;20243;-85
2021/11/05 09:05:43;;;;;;;7.77;6.47;;;;;;;;;;5132824;28;20225;-85
2021/11/05 09:08:10;;;;;;;7.63;6.67;;;;;;;;;;5132955;28;20576;-85
2021/11/05 09:10:37;;;;;;;9.37;7.30;;;;;;;;;;5132847;28;20194;-85
2021/11/05 09:13:05;;;;;;;7.70;6.87;;;;;;;;;;5132655;28;20187;-85
2021/11/05 09:15:33;;;;;;;7.67;6.90;;;;;;;;;;5135951;27;20201;-85
2021/11/05 09:18:04;;;;;;;8.97;8.10;;;;;;;;;;5137130;27;20198;-85
2021/11/05 09:20:33;;;;;;;9.73;7.97;;;;;;;;;;5136995;27;20182;-85
2021/11/05 09:23:01;;;;;;;9.23;8.17;;;;;;;;;;5136740;27;20286;-85
2021/11/05 09:25:28;;;;;;;8.70;7.80;;;;;;;;;;5136726;27;20701;-84
2021/11/05 09:27:56;;;;;;;10.70;8.80;;;;;;;;;;5136936;27;20600;-85
2021/11/05 09:30:24;;;;;;;10.90;8.53;;;;;;;;;;5136571;27;20203;-85
2021/11/05 09:32:52;;;;;;;10.73;9.60;;;;;;;;;;5136809;27;20199;-85
2021/11/05 09:35:21;;;;;;;12.27;9.97;;;;;;;;;;5136614;27;20199;-85
2021/11/05 09:37:50;;;;;;;13.93;11.27;;;;;;;;;;5136729;27;20191;-86
2021/11/05 09:40:19;;;;;;;16.90;11.50;;;;;;;;;;5136285;27;20193;-85
2021/11/05 09:42:49;;;;;;;11.57;10.47;;;;;;;;;;5136664;27;20195;-85
2021/11/05 09:45:17;;;;;;;14.37;11.90;;;;;;;;;;5136589;27;20641;-85
2021/11/05 09:47:45;;;;;;;12.10;10.97;;;;;;;;;;5136559;27;20256;-85
2021/11/05 09:50:15;;;;;;;14.87;13.37;;;;;;;;;;5136196;27;20195;-84
2021/11/05 09:52:45;;;;;;;13.70;11.90;;;;;;;;;;5136750;27;20243;-85
2021/11/05 09:55:14;;;;;;;11.53;10.33;;;;;;;;;;5136296;27;20183;-85
2021/11/05 09:57:41;;;;;;;11.73;10.67;;;;;;;;;;5136150;27;20226;-85
2021/11/05 10:00:11;;;;;;;16.80;15.00;;;;;;;;;;5136132;27;20237;-85
2021/11/05 10:02:38;;;;;;;16.10;14.43;;;;;;;;;;5136121;27;20614;-85
2021/11/05 10:05:06;;;;;;;29.50;25.53;;;;;;;;;;5135947;27;20218;-85
2021/11/05 10:07:38;;;;;;;28.27;25.47;;;;;;;;;;5136702;27;20668;-85
2021/11/05 10:10:08;;;;;;;14.90;13.40;;;;;;;;;;5136065;27;20230;-84
2021/11/05 10:12:35;;;;;;;15.97;12.40;;;;;;;;;;5135816;27;20663;-85
2021/11/05 10:15:05;;;;;;;15.27;13.67;;;;;;;;;;5136177;27;20194;-84
2021/11/05 10:17:36;;;;;;;17.57;14.53;;;;;;;;;;5136715;27;20553;-85
2021/11/05 10:20:05;;;;;;;14.67;11.20;;;;;;;;;;5135796;27;20190;-84
2021/11/05 10:22:37;;;;;;;22.93;18.60;;;;;;;;;;5135689;27;20196;-84
2021/11/05 10:25:34;;;;;;;22.57;20.33;;;;;;;;;;5135462;27;20263;-84
2021/11/05 10:28:11;;;;;;;31.17;26.43;;;;;;;;;;5088613;27;20635;-85
2021/11/05 10:30:41;;;;;;;24.37;21.97;;;;;;;;;;5135500;27;20646;-85
2021/11/05 10:33:09;;;;;;;22.03;17.47;;;;;;;;;;5135681;27;20267;-84
2021/11/05 10:35:38;;;;;;;29.83;24.27;;;;;;;;;;5135502;27;20194;-84
2021/11/05 10:38:06;;;;;;;20.40;17.97;;;;;;;;;;5135613;27;20209;-84
2021/11/05 10:40:38;;;;;;;19.33;16.73;;;;;;;;;;5135132;27;20257;-84
2021/11/05 10:43:06;;;;;;;20.20;15.67;;;;;;;;;;5135548;27;20181;-84
2021/11/05 10:45:33;;;;;;;15.90;14.30;;;;;;;;;;5135169;27;20279;-84
2021/11/05 10:48:07;;;;;;;15.97;12.67;;;;;;;;;;5135054;27;20201;-84
2021/11/05 10:50:37;;;;;;;13.20;11.60;;;;;;;;;;5135133;27;20243;-84
2021/11/05 10:53:07;;;;;;;14.07;12.57;;;;;;;;;;5135243;27;20195;-84
2021/11/05 10:55:47;;;;;;;16.50;13.47;;;;;;;;;;5135381;27;20183;-84
2021/11/05 10:58:23;;;;;;;14.20;12.63;;;;;;;;;;5135060;27;20238;-84
2021/11/05 11:00:52;;;;;;;16.30;14.77;;;;;;;;;;5134779;27;20259;-84
2021/11/05 11:03:25;;;;;;;18.97;16.30;;;;;;;;;;5135055;27;20199;-85
2021/11/05 11:05:53;;;;;;;14.43;12.97;;;;;;;;;;5134842;27;20207;-84
2021/11/05 11:08:23;;;;;;;14.30;12.77;;;;;;;;;;5135009;27;20896;-84
2021/11/05 11:10:54;;;;;;;13.80;11.33;;;;;;;;;;5134644;27;20561;-85
2021/11/05 11:13:36;;;;;;;11.30;10.20;;;;;;;;;;5134905;27;20191;-84
2021/11/05 11:16:06;;;;;;;16.37;11.07;;;;;;;;;;5134769;27;20181;-84
2021/11/05 11:18:33;;;;;;;12.77;11.23;;;;;;;;;;5134642;27;20663;-84
2021/11/05 11:21:23;;;;;;;12.27;9.90;;;;;;;;;;5134541;27;20232;-84
2021/11/05 11:24:20;;;;;;;12.40;9.90;;;;;;;;;;5099611;27;20194;-84
2021/11/05 11:26:50;;;;;;;11.00;9.83;;;;;;;;;;5133222;27;20194;-84
2021/11/05 11:32:26;;;;;;;18.13;10.23;;;;;;;;;;5131464;27;20225;-84
2021/11/05 11:35:09;;;;;;;10.87;8.70;;;;;;;;;;5132474;27;20191;-84
2021/11/05 11:37:55;;;;;;;10.60;8.90;;;;;;;;;;5132958;27;20198;-84
2021/11/05 11:40:24;;;;;;;9.20;8.07;;;;;;;;;;5133923;27;20197;-84
2021/11/05 11:42:55;;;;;;;9.77;7.87;;;;;;;;;;5134275;27;20198;-85
2021/11/05 11:45:22;;;;;;;10.50;7.90;;;;;;;;;;5133944;27;20246;-84
2021/11/05 11:47:53;;;;;;;9.47;8.33;;;;;;;;;;5134202;27;20222;-84
2021/11/05 11:50:28;;;;;;;10.90;8.40;;;;;;;;;;5134142;27;20190;-84
2021/11/05 11:53:00;;;;;;;9.33;8.43;;;;;;;;;;5134092;27;20187;-85
2021/11/05 11:55:28;;;;;;;12.33;8.97;;;;;;;;;;5133843;27;20198;-85
2021/11/05 11:58:16;;;;;;;12.37;9.20;;;;;;;;;;5133834;27;20259;-84
2021/11/05 12:00:45;;;;;;;12.33;8.60;;;;;;;;;;5133813;27;20183;-84
2021/11/05 12:03:14;;;;;;;11.37;8.67;;;;;;;;;;5133928;27;20259;-85
2021/11/05 12:05:46;;;;;;;10.13;9.10;;;;;;;;;;5133855;27;20225;-84
2021/11/05 12:08:21;;;;;;;13.50;10.27;;;;;;;;;;5133789;27;20703;-85
2021/11/05 12:10:51;;;;;;;14.57;10.27;;;;;;;;;;5133469;27;20642;-85
2021/11/05 12:13:44;;;;;;;13.17;10.63;;;;;;;;;;5133742;27;20215;-85
2021/11/05 12:16:21;;;;;;;12.43;10.00;;;;;;;;;;5124459;27;20219;-84
2021/11/05 12:19:12;;;;;;;15.13;9.37;;;;;;;;;;5133401;27;20182;-85
2021/11/05 12:21:42;;;;;;;10.43;9.33;;;;;;;;;;5122075;27;20747;-85
2021/11/05 12:24:26;;;;;;;10.60;8.43;;;;;;;;;;5133782;27;20230;-84
2021/11/05 12:27:10;;;;;;;13.10;7.53;;;;;;;;;;5133644;27;20179;-84
2021/11/05 12:29:59;;;;;;;12.57;8.17;;;;;;;;;;5133324;27;20653;-84
2021/11/05 12:32:34;;;;;;;11.10;9.37;;;;;;;;;;5133454;27;20190;-84
2021/11/05 12:35:23;;;;;;;13.83;8.00;;;;;;;;;;5133497;27;20255;-85
2021/11/05 12:37:57;;;;;;;9.67;6.90;;;;;;;;;;5133342;27;20632;-84
2021/11/05 12:40:32;;;;;;;7.77;6.43;;;;;;;;;;5132967;27;20197;-85
2021/11/05 12:43:01;;;;;;;13.33;9.47;;;;;;;;;;5133344;27;20179;-85
2021/11/05 12:45:54;;;;;;;13.13;5.97;;;;;;;;;;5132960;27;20219;-85
2021/11/05 12:49:09;;;;;;;11.13;7.27;;;;;;;;;;5113942;27;20198;-85
2021/11/05 12:52:16;;;;;;;12.10;6.17;;;;;;;;;;5133049;27;20234;-85
2021/11/05 12:58:18;;;;;;;8.30;6.67;;;;;;;;;;5132624;27;20222;-85
2021/11/05 13:01:14;;;;;;;9.37;8.20;;;;;;;;;;5132501;27;20197;-85
2021/11/05 13:03:42;;;;;;;12.67;7.40;;;;;;;;;;5132506;28;20187;-84
2021/11/05 13:06:11;;;;;;;14.43;8.67;;;;;;;;;;5132041;27;20225;-85
2021/11/05 13:08:41;;;;;;;14.70;8.20;;;;;;;;;;5131474;27;20195;-85
2021/11/05 13:11:51;;;;;;;6.33;5.70;;;;;;;;;;5132912;28;20547;-85
2021/11/05 13:14:19;;;;;;;6.67;5.67;;;;;;;;;;5133453;28;20193;-85
2021/11/05 13:20:07;;;;;;;10.97;7.60;;;;;;;;;;5126834;27;20187;-85
2021/11/05 13:25:53;;;;;;;10.17;8.33;;;;;;;;;;5130392;28;20271;-85
2021/11/05 13:28:41;;;;;;;9.63;8.80;;;;;;;;;;5132724;28;20202;-84
2021/11/05 13:31:57;;;;;;;10.80;8.03;;;;;;;;;;5116468;28;20671;-85
2021/11/05 13:34:59;;;;;;;10.73;8.63;;;;;;;;;;5131708;28;20251;-84
2021/11/05 13:37:37;;;;;;;12.10;8.77;;;;;;;;;;5131133;28;20285;-85
2021/11/05 13:40:16;;;;;;;10.23;8.67;;;;;;;;;;5132260;27;20191;-84
2021/11/05 13:42:46;;;;;;;19.27;9.70;;;;;;;;;;5132643;27;20198;-85
2021/11/05 13:48:54;;;;;;;11.13;7.03;;;;;;;;;;5132185;27;20202;-84
2021/11/05 13:51:28;;;;;;;13.17;7.90;;;;;;;;;;5116594;28;20190;-85
2021/11/05 13:54:01;;;;;;;10.33;9.23;;;;;;;;;;5132724;28;20220;-84
2021/11/05 13:56:30;;;;;;;14.23;9.93;;;;;;;;;;5132764;28;20228;-85
2021/11/05 13:59:00;;;;;;;18.00;16.30;;;;;;;;;;5132507;28;20617;-84
2021/11/05 14:01:29;;;;;;;21.20;15.10;;;;;;;;;;5133144;27;20232;-85
2021/11/05 14:03:57;;;;;;;22.13;17.73;;;;;;;;;;5136203;27;20203;-85
2021/11/05 14:06:25;;;;;;;14.93;11.70;;;;;;;;;;5136053;27;20303;-84
2021/11/05 14:08:54;;;;;;;19.37;13.93;;;;;;;;;;5136077;27;20237;-85
2021/11/05 14:11:32;;;;;;;25.93;20.20;;;;;;;;;;5135928;27;20244;-85
2021/11/05 14:14:00;;;;;;;12.93;10.97;;;;;;;;;;5135969;27;20183;-85
2021/11/05 14:16:29;;;;;;;14.33;7.80;;;;;;;;;;5135963;27;20191;-84
2021/11/05 14:19:10;;;;;;;8.60;7.47;;;;;;;;;;5135886;27;20199;-84
2021/11/05 14:21:38;;;;;;;12.73;9.83;;;;;;;;;;5135533;27;20237;-84
2021/11/05 14:24:15;;;;;;;14.70;11.20;;;;;;;;;;5135827;27;20194;-84
2021/11/05 14:26:45;;;;;;;6.20;5.60;;;;;;;;;;5135572;27;20224;-84
2021/11/05 14:29:14;;;;;;;10.10;6.53;;;;;;;;;;5135663;27;20190;-84
2021/11/05 14:31:52;;;;;;;8.50;5.03;;;;;;;;;;5135486;27;20579;-84
2021/11/05 14:34:20;;;;;;;8.43;4.77;;;;;;;;;;5135612;27;20194;-83
2021/11/05 14:36:47;;;;;;;12.53;6.07;;;;;;;;;;5135649;27;20199;-84
2021/11/05 14:39:14;;;;;;;10.80;5.53;;;;;;;;;;5135545;27;20198;-83
2021/11/05 14:41:42;;;;;;;11.90;3.97;;;;;;;;;;5135326;27;20195;-84
2021/11/05 14:44:10;;;;;;;16.10;4.67;;;;;;;;;;5135689;27;20245;-83
2021/11/05 14:46:45;;;;;;;4.20;3.43;;;;;;;;;;5135369;27;20227;-83
2021/11/05 14:49:14;;;;;;;6.90;3.57;;;;;;;;;;5135323;27;20227;-84
2021/11/05 14:51:42;;;;;;;7.73;3.10;;;;;;;;;;5134889;27;20199;-84
2021/11/05 14:54:09;;;;;;;8.20;3.80;;;;;;;;;;5135261;27;20190;-83
2021/11/05 14:56:36;;;;;;;33.80;19.43;;;;;;;;;;5135048;27;20255;-83
2021/11/05 14:59:04;;;;;;;17.37;11.03;;;;;;;;;;5135023;27;20230;-84
2021/11/05 15:01:34;;;;;;;10.37;5.53;;;;;;;;;;5135031;27;20538;-84
2021/11/05 15:04:06;;;;;;;13.83;7.50;;;;;;;;;;5135203;27;20605;-83